Time;durP1;ratioP1;P1;durP2;ratioP2;P2;SDS_P1;SDS_P2;PMS_P1;PMS_P2;Temp;Humidity;BMP_temperature;BMP_pressure;BME280_temperature;BME280_humidity;BME280_pressure;Samples;Min_cycle;Max_cycle;Signal;HPM_P1;HPM_P2
2021/01/06 00:00:40;;;;;;;67.93;32.20;;;4.80;99.90;;;;;;5108130;28;20176;-80
2021/01/06 00:03:06;;;;;;;78.22;38.65;;;4.90;99.90;;;;;;5108607;28;20294;-80
2021/01/06 00:05:32;;;;;;;89.65;44.25;;;4.80;99.90;;;;;;5108051;28;20172;-80
2021/01/06 00:07:58;;;;;;;81.65;39.85;;;4.70;99.90;;;;;;5106211;28;20301;-80
2021/01/06 00:10:25;;;;;;;75.50;38.27;;;4.70;99.90;;;;;;5107455;28;20639;-80
2021/01/06 00:12:51;;;;;;;77.63;38.90;;;4.70;99.90;;;;;;5108243;28;20172;-80
2021/01/06 00:15:30;;;;;;;71.90;35.50;;;4.70;99.90;;;;;;5105995;28;20600;-80
2021/01/06 00:17:55;;;;;;;71.70;37.50;;;4.70;99.90;;;;;;5108635;28;20415;-80
2021/01/06 00:20:23;;;;;;;77.30;38.63;;;4.60;99.90;;;;;;5107770;28;20172;-80
2021/01/06 00:22:49;;;;;;;63.58;35.10;;;4.60;99.90;;;;;;5107846;28;20203;-80
2021/01/06 00:25:21;;;;;;;67.97;35.30;;;4.60;99.90;;;;;;5106719;28;20623;-80
2021/01/06 00:27:47;;;;;;;62.03;36.50;;;4.60;99.90;;;;;;5108324;28;20209;-80
2021/01/06 00:30:37;;;;;;;68.63;37.70;;;4.60;99.90;;;;;;5107416;28;20203;-80
2021/01/06 00:33:06;;;;;;;76.85;37.20;;;4.60;99.90;;;;;;5107958;28;20314;-79
2021/01/06 00:35:32;;;;;;;67.38;34.75;;;4.60;99.90;;;;;;5108064;28;20257;-80
2021/01/06 00:37:58;;;;;;;66.22;32.88;;;4.60;99.90;;;;;;5107607;28;20191;-80
2021/01/06 00:40:30;;;;;;;61.33;32.30;;;4.60;99.90;;;;;;5108991;28;20179;-80
2021/01/06 00:43:00;;;;;;;67.47;35.20;;;4.50;99.90;;;;;;5105667;28;20191;-80
2021/01/06 00:45:26;;;;;;;75.70;37.15;;;4.50;99.90;;;;;;5106480;28;20253;-80
2021/01/06 00:47:52;;;;;;;68.97;33.40;;;4.50;99.90;;;;;;5106015;28;20188;-80
2021/01/06 00:50:28;;;;;;;70.13;35.00;;;4.50;99.90;;;;;;5107562;28;20202;-80
2021/01/06 00:53:03;;;;;;;64.95;33.35;;;4.50;99.90;;;;;;5107732;28;20498;-80
2021/01/06 00:55:28;;;;;;;58.90;31.15;;;4.50;99.90;;;;;;5106580;28;20219;-81
2021/01/06 00:57:55;;;;;;;62.47;31.07;;;4.40;99.90;;;;;;5108199;28;20229;-80
2021/01/06 01:00:24;;;;;;;68.60;34.05;;;4.50;99.90;;;;;;5108093;28;20575;-80
2021/01/06 01:02:52;;;;;;;67.75;33.03;;;4.50;99.90;;;;;;5106512;28;20191;-80
2021/01/06 01:05:24;;;;;;;66.82;30.98;;;4.50;99.90;;;;;;5107254;28;20184;-80
2021/01/06 01:07:50;;;;;;;56.20;31.42;;;4.40;99.90;;;;;;5109019;28;20260;-80
2021/01/06 01:10:30;;;;;;;49.57;27.83;;;4.30;99.90;;;;;;5108469;28;20560;-79
2021/01/06 01:12:57;;;;;;;55.17;27.40;;;4.40;99.90;;;;;;5108083;28;20408;-80
2021/01/06 01:15:24;;;;;;;56.40;29.40;;;4.30;99.90;;;;;;5108107;28;20180;-80
2021/01/06 01:17:49;;;;;;;59.72;31.42;;;4.30;99.90;;;;;;5111729;28;20180;-80
2021/01/06 01:20:17;;;;;;;63.50;31.63;;;4.30;99.90;;;;;;5110135;28;20168;-80
2021/01/06 01:22:44;;;;;;;57.03;31.60;;;4.20;99.90;;;;;;5111645;28;20180;-80
2021/01/06 01:25:11;;;;;;;58.83;29.27;;;4.10;99.90;;;;;;5111486;28;20176;-79
2021/01/06 01:27:38;;;;;;;54.13;27.58;;;4.10;99.90;;;;;;5110943;28;20172;-80
2021/01/06 01:30:06;;;;;;;62.67;29.40;;;4.10;99.90;;;;;;5110740;28;20229;-80
2021/01/06 01:32:32;;;;;;;58.65;31.35;;;4.10;99.90;;;;;;5109068;28;20543;-80
2021/01/06 01:34:57;;;;;;;63.33;34.27;;;4.10;99.90;;;;;;5110563;28;20180;-79
2021/01/06 01:37:23;;;;;;;57.40;29.73;;;4.20;99.90;;;;;;5109382;28;20601;-81
2021/01/06 01:39:48;;;;;;;56.00;30.13;;;4.10;99.90;;;;;;5111295;28;20176;-80
2021/01/06 01:42:16;;;;;;;48.83;27.03;;;4.00;99.90;;;;;;5111716;28;20223;-80
2021/01/06 01:45:14;;;;;;;63.72;30.40;;;4.10;99.90;;;;;;5110733;28;20184;-80
2021/01/06 01:47:47;;;;;;;51.25;26.38;;;4.00;99.90;;;;;;5098075;27;20188;-80
2021/01/06 01:50:15;;;;;;;57.58;30.05;;;4.00;99.90;;;;;;5110958;28;20573;-80
2021/01/06 01:52:46;;;;;;;63.63;32.85;;;4.00;99.90;;;;;;5109563;28;20196;-80
2021/01/06 01:55:14;;;;;;;65.43;33.78;;;4.00;99.90;;;;;;5109159;28;20215;-80
2021/01/06 01:57:45;;;;;;;70.60;32.53;;;4.00;99.90;;;;;;5110652;27;20711;-80
2021/01/06 02:00:24;;;;;;;52.17;28.42;;;3.90;99.90;;;;;;5111096;28;20217;-80
2021/01/06 02:02:55;;;;;;;55.40;27.67;;;3.90;99.90;;;;;;5109183;28;20206;-80
2021/01/06 02:05:43;;;;;;;61.42;28.48;;;3.80;99.90;;;;;;5110988;28;20191;-80
2021/01/06 02:08:23;;;;;;;58.08;28.65;;;3.90;99.90;;;;;;5108690;28;20188;-80
2021/01/06 02:10:53;;;;;;;71.03;34.42;;;3.80;99.90;;;;;;5110436;28;20194;-80
2021/01/06 02:13:22;;;;;;;57.85;29.02;;;3.80;99.90;;;;;;5110935;28;20255;-81
2021/01/06 02:15:54;;;;;;;58.72;27.30;;;3.80;99.90;;;;;;5111134;28;20541;-81
2021/01/06 02:18:20;;;;;;;46.53;22.02;;;3.70;99.90;;;;;;5110441;28;20168;-81
2021/01/06 02:21:13;;;;;;;52.77;25.00;;;3.70;99.90;;;;;;5110399;28;20538;-80
2021/01/06 02:23:40;;;;;;;54.83;26.90;;;3.70;99.90;;;;;;5109679;28;20211;-80
2021/01/06 02:26:06;;;;;;;50.80;24.25;;;3.70;99.90;;;;;;5110277;28;20651;-80
2021/01/06 02:28:32;;;;;;;52.93;26.10;;;3.70;99.90;;;;;;5108862;28;20296;-80
2021/01/06 02:30:58;;;;;;;59.58;26.85;;;3.60;99.90;;;;;;5110052;28;20719;-80
2021/01/06 02:33:24;;;;;;;51.40;26.80;;;3.60;99.90;;;;;;5110361;28;20178;-80
2021/01/06 02:35:51;;;;;;;47.05;25.52;;;3.60;99.90;;;;;;5108720;28;20240;-81
2021/01/06 02:38:19;;;;;;;42.22;21.83;;;3.60;99.90;;;;;;5109651;28;20623;-80
2021/01/06 02:40:45;;;;;;;52.88;26.08;;;3.60;99.90;;;;;;5108934;28;20188;-80
2021/01/06 02:43:11;;;;;;;51.30;25.30;;;3.60;99.90;;;;;;5110033;28;20184;-80
2021/01/06 02:45:37;;;;;;;48.20;24.30;;;3.50;99.90;;;;;;5108260;28;20191;-80
2021/01/06 02:48:03;;;;;;;54.93;25.23;;;3.50;99.90;;;;;;5109921;28;20236;-80
2021/01/06 02:50:32;;;;;;;52.83;26.60;;;3.60;99.90;;;;;;5109486;28;20231;-80
2021/01/06 02:53:11;;;;;;;56.00;25.52;;;3.60;99.90;;;;;;5109318;28;20627;-80
2021/01/06 02:55:38;;;;;;;47.00;23.25;;;3.60;99.90;;;;;;5109463;28;20226;-80
2021/01/06 02:58:09;;;;;;;47.13;24.70;;;3.70;99.90;;;;;;5108304;28;20246;-80
2021/01/06 03:00:35;;;;;;;49.08;22.30;;;3.60;99.90;;;;;;5109313;28;20173;-80
2021/01/06 03:03:02;;;;;;;42.28;21.73;;;3.60;99.90;;;;;;5109580;28;20179;-80
2021/01/06 03:05:46;;;;;;;46.78;25.20;;;3.50;99.90;;;;;;5108990;28;20270;-80
2021/01/06 03:08:15;;;;;;;46.90;24.00;;;3.50;99.90;;;;;;5109184;28;20627;-80
2021/01/06 03:10:41;;;;;;;47.20;23.73;;;3.40;99.90;;;;;;5108659;28;20195;-80
2021/01/06 03:13:07;;;;;;;50.60;25.37;;;3.50;99.90;;;;;;5108520;28;20191;-80
2021/01/06 03:15:32;;;;;;;46.03;24.13;;;3.50;99.90;;;;;;5109426;28;20640;-80
2021/01/06 03:17:59;;;;;;;46.93;24.33;;;3.50;99.90;;;;;;5109066;28;20294;-80
2021/01/06 03:20:33;;;;;;;36.88;21.73;;;3.50;99.90;;;;;;5108696;28;20387;-80
2021/01/06 03:23:08;;;;;;;44.22;23.80;;;3.50;99.90;;;;;;5109877;28;20179;-80
2021/01/06 03:25:35;;;;;;;42.95;23.80;;;3.50;99.90;;;;;;5107908;28;20544;-80
2021/01/06 03:28:01;;;;;;;38.60;21.33;;;3.50;99.90;;;;;;5107198;28;20176;-80
2021/01/06 03:30:30;;;;;;;39.10;23.20;;;3.50;99.90;;;;;;5107613;28;20218;-80
2021/01/06 03:33:26;;;;;;;42.85;22.17;;;3.50;99.90;;;;;;5108918;28;20172;-80
2021/01/06 03:35:56;;;;;;;33.33;20.70;;;3.50;99.90;;;;;;5109061;28;20164;-80
2021/01/06 03:38:36;;;;;;;37.65;19.92;;;3.50;99.90;;;;;;5108338;28;20544;-80
2021/01/06 03:41:05;;;;;;;45.58;21.98;;;3.50;99.90;;;;;;5108857;28;20557;-80
2021/01/06 03:43:33;;;;;;;35.08;19.38;;;3.60;99.90;;;;;;5109207;28;20561;-80
2021/01/06 03:46:09;;;;;;;37.90;21.52;;;3.50;99.90;;;;;;5107238;28;20677;-80
2021/01/06 03:48:57;;;;;;;34.72;19.48;;;3.50;99.90;;;;;;5107151;28;20226;-80
2021/01/06 03:51:44;;;;;;;37.03;19.77;;;3.60;99.90;;;;;;5107033;28;20199;-80
2021/01/06 03:54:48;;;;;;;30.42;18.52;;;3.60;99.90;;;;;;5107241;28;20215;-80
2021/01/06 03:57:14;;;;;;;32.95;19.25;;;3.60;99.90;;;;;;5108383;28;20164;-80
2021/01/06 03:59:45;;;;;;;32.08;19.20;;;3.70;99.90;;;;;;5108318;28;20171;-80
2021/01/06 04:02:18;;;;;;;34.20;19.85;;;3.70;99.90;;;;;;5107493;28;20628;-80
2021/01/06 04:04:53;;;;;;;32.70;19.00;;;3.70;99.90;;;;;;5108651;28;20560;-80
2021/01/06 04:07:19;;;;;;;32.53;19.52;;;3.80;99.90;;;;;;5107937;28;20228;-80
2021/01/06 04:10:03;;;;;;;32.20;19.93;;;3.80;99.90;;;;;;5108437;28;20203;-80
2021/01/06 04:12:28;;;;;;;31.15;19.05;;;3.70;99.90;;;;;;5106624;28;20183;-79
2021/01/06 04:14:54;;;;;;;32.67;18.47;;;3.80;99.90;;;;;;5108321;28;20192;-80
2021/01/06 04:17:27;;;;;;;33.77;18.73;;;3.80;99.90;;;;;;5106936;28;20172;-80
2021/01/06 04:20:22;;;;;;;28.58;19.45;;;3.80;99.90;;;;;;5107488;28;20171;-80
2021/01/06 04:22:50;;;;;;;31.52;19.63;;;3.90;99.70;;;;;;5105767;28;20194;-80
2021/01/06 04:25:25;;;;;;;36.20;19.45;;;3.90;99.80;;;;;;5108046;28;20186;-80
2021/01/06 04:28:04;;;;;;;34.10;19.83;;;3.90;99.50;;;;;;5107981;28;20642;-80
2021/01/06 04:30:32;;;;;;;28.35;18.60;;;3.90;99.50;;;;;;5107717;28;20202;-80
2021/01/06 04:32:59;;;;;;;26.83;16.98;;;3.90;99.60;;;;;;5108023;28;20164;-80
2021/01/06 04:35:27;;;;;;;30.48;19.75;;;4.00;99.40;;;;;;5106253;28;20188;-80
2021/01/06 04:37:53;;;;;;;30.50;19.25;;;4.00;99.50;;;;;;5108402;28;20558;-80
2021/01/06 04:40:24;;;;;;;27.70;18.20;;;4.00;99.20;;;;;;5105786;28;20184;-80
2021/01/06 04:42:50;;;;;;;27.02;17.35;;;4.00;99.40;;;;;;5106638;28;20592;-80
2021/01/06 04:45:23;;;;;;;23.38;15.05;;;4.10;99.30;;;;;;5108120;28;20723;-80
2021/01/06 04:47:57;;;;;;;20.17;11.93;;;4.60;97.80;;;;;;5107937;28;20632;-80
2021/01/06 04:50:54;;;;;;;23.15;15.20;;;5.10;96.30;;;;;;5107017;28;20248;-80
2021/01/06 04:53:29;;;;;;;30.75;20.95;;;4.70;96.90;;;;;;5112330;28;20220;-79
2021/01/06 04:56:30;;;;;;;25.73;17.85;;;4.60;97.50;;;;;;5110213;28;20594;-80
2021/01/06 04:59:35;;;;;;;25.08;15.95;;;4.60;97.40;;;;;;5112181;28;20660;-79
2021/01/06 05:02:20;;;;;;;18.60;13.20;;;4.60;97.50;;;;;;5112252;28;20167;-80
2021/01/06 05:05:07;;;;;;;15.30;11.27;;;4.60;97.30;;;;;;5112821;28;20230;-79
2021/01/06 05:08:01;;;;;;;16.17;11.70;;;4.60;97.50;;;;;;5110742;28;20183;-80
2021/01/06 05:10:38;;;;;;;14.95;10.50;;;4.60;97.20;;;;;;5112177;28;20592;-80
2021/01/06 05:13:24;;;;;;;16.05;11.25;;;4.70;97.00;;;;;;5111361;28;20191;-79
2021/01/06 05:15:58;;;;;;;16.02;11.50;;;4.70;97.40;;;;;;5112139;27;20239;-80
2021/01/06 05:18:25;;;;;;;20.52;12.32;;;4.70;96.90;;;;;;5110503;28;20184;-80
2021/01/06 05:20:50;;;;;;;13.98;10.38;;;4.80;97.00;;;;;;5111280;28;20219;-79
2021/01/06 05:23:19;;;;;;;17.63;12.07;;;4.80;96.60;;;;;;5110785;28;20208;-79
2021/01/06 05:25:45;;;;;;;17.95;13.75;;;4.80;96.50;;;;;;5112087;28;20724;-79
2021/01/06 05:28:20;;;;;;;16.97;11.80;;;4.90;96.10;;;;;;5111503;28;20270;-79
2021/01/06 05:30:51;;;;;;;15.48;12.63;;;5.00;96.00;;;;;;5112529;28;20238;-79
2021/01/06 05:33:23;;;;;;;13.57;11.65;;;4.90;96.40;;;;;;5112272;28;20225;-79
2021/01/06 05:35:48;;;;;;;15.35;11.20;;;4.80;96.30;;;;;;5112024;28;20188;-80
2021/01/06 05:38:14;;;;;;;14.67;11.17;;;5.30;95.50;;;;;;5111202;28;20229;-79
2021/01/06 05:40:43;;;;;;;17.00;11.70;;;5.40;94.80;;;;;;5109933;28;20188;-80
2021/01/06 05:43:18;;;;;;;12.73;10.63;;;5.40;94.60;;;;;;5111798;28;20176;-80
2021/01/06 05:45:47;;;;;;;16.08;11.13;;;5.70;94.10;;;;;;5110548;28;20179;-79
2021/01/06 05:48:46;;;;;;;17.90;12.35;;;5.70;94.60;;;;;;5110662;28;20533;-79
2021/01/06 05:51:32;;;;;;;16.45;12.40;;;5.80;93.70;;;;;;5110585;28;20196;-79
2021/01/06 05:54:20;;;;;;;15.80;12.10;;;6.00;94.10;;;;;;5110423;28;20183;-79
2021/01/06 05:57:10;;;;;;;15.70;11.88;;;5.70;93.90;;;;;;5109823;28;20376;-79
2021/01/06 05:59:48;;;;;;;18.27;13.70;;;6.00;93.40;;;;;;5109853;28;20296;-79
2021/01/06 06:02:47;;;;;;;18.92;14.82;;;5.30;94.80;;;;;;5108163;28;20186;-80
2021/01/06 06:05:40;;;;;;;20.90;14.35;;;5.10;95.50;;;;;;5110352;28;20207;-79
2021/01/06 06:08:08;;;;;;;18.25;15.20;;;4.80;96.40;;;;;;5110840;28;20180;-79
2021/01/06 06:10:50;;;;;;;19.30;14.93;;;4.70;96.50;;;;;;5109824;28;20207;-80
2021/01/06 06:13:37;;;;;;;17.33;12.45;;;4.60;97.30;;;;;;5109735;28;20182;-80
2021/01/06 06:16:30;;;;;;;17.67;11.82;;;4.60;97.10;;;;;;5110424;28;20165;-79
2021/01/06 06:19:22;;;;;;;16.33;13.55;;;4.50;97.20;;;;;;5111776;28;20188;-79
2021/01/06 06:22:33;;;;;;;18.70;13.10;;;4.50;97.20;;;;;;5111597;28;20168;-79
2021/01/06 06:25:24;;;;;;;16.55;13.23;;;4.50;97.60;;;;;;5104796;28;20203;-79
2021/01/06 06:28:21;;;;;;;15.73;12.63;;;4.50;97.70;;;;;;5109338;28;20179;-79
2021/01/06 06:31:14;;;;;;;17.70;14.18;;;4.50;97.80;;;;;;5110935;28;20195;-79
2021/01/06 06:33:40;;;;;;;28.92;22.60;;;4.50;97.90;;;;;;5110350;28;20703;-79
2021/01/06 06:36:19;;;;;;;27.03;16.90;;;4.50;97.60;;;;;;5110433;28;20190;-79
2021/01/06 06:38:46;;;;;;;21.08;16.65;;;4.50;97.90;;;;;;5111747;28;20180;-80
2021/01/06 06:41:21;;;;;;;23.98;17.40;;;4.40;97.90;;;;;;5110235;28;20677;-79
2021/01/06 06:43:49;;;;;;;25.25;17.25;;;4.50;98.30;;;;;;5109411;28;20663;-79
2021/01/06 06:46:33;;;;;;;23.83;17.05;;;4.40;98.40;;;;;;5108923;28;20540;-80
2021/01/06 06:49:29;;;;;;;19.88;16.25;;;4.50;98.10;;;;;;5109028;28;20207;-80
2021/01/06 06:52:17;;;;;;;21.95;16.95;;;4.50;98.10;;;;;;5108170;28;20180;-80
2021/01/06 06:54:54;;;;;;;23.33;16.17;;;4.50;98.30;;;;;;5108695;28;20179;-81
2021/01/06 06:57:27;;;;;;;18.45;12.80;;;4.60;98.40;;;;;;5105491;28;20589;-80
2021/01/06 07:00:01;;;;;;;38.95;25.55;;;4.60;98.60;;;;;;5102313;28;20188;-80
2021/01/06 07:02:28;;;;;;;24.02;20.95;;;4.60;98.40;;;;;;5104270;28;20242;-81
2021/01/06 07:05:06;;;;;;;23.60;19.23;;;4.50;98.80;;;;;;5098352;28;20265;-80
2021/01/06 07:07:53;;;;;;;26.17;18.63;;;4.50;99.10;;;;;;5107786;28;20172;-80
2021/01/06 07:10:30;;;;;;;25.75;15.85;;;4.50;99.10;;;;;;5100450;27;20208;-80
2021/01/06 07:13:01;;;;;;;35.33;23.90;;;4.50;99.30;;;;;;5100270;28;20233;-80
2021/01/06 07:15:32;;;;;;;29.55;21.05;;;4.50;99.10;;;;;;5096899;28;20234;-80
2021/01/06 07:17:58;;;;;;;26.05;18.45;;;4.50;99.00;;;;;;5105045;28;20176;-80
2021/01/06 07:20:38;;;;;;;26.48;19.95;;;4.60;98.90;;;;;;5101162;28;20182;-80
2021/01/06 07:23:14;;;;;;;31.88;24.63;;;4.50;98.90;;;;;;5100022;28;20239;-80
2021/01/06 07:25:42;;;;;;;26.48;20.65;;;4.60;99.00;;;;;;5085937;28;20194;-80
2021/01/06 07:28:14;;;;;;;32.65;24.00;;;4.60;99.20;;;;;;5094122;28;20180;-79
2021/01/06 07:30:46;;;;;;;24.77;20.27;;;4.60;99.10;;;;;;5096592;28;20206;-79
2021/01/06 07:33:27;;;;;;;27.42;22.95;;;4.60;99.10;;;;;;5104567;28;20193;-79
2021/01/06 07:35:52;;;;;;;30.95;25.90;;;4.70;99.00;;;;;;5087014;28;20214;-79
2021/01/06 07:38:20;;;;;;;23.37;20.87;;;4.70;99.20;;;;;;5088452;28;20564;-79
2021/01/06 07:40:57;;;;;;;28.95;22.40;;;4.70;99.20;;;;;;5088329;28;20188;-79
2021/01/06 07:43:26;;;;;;;32.15;25.45;;;4.80;99.30;;;;;;5086290;28;20186;-79
2021/01/06 07:45:57;;;;;;;33.58;27.25;;;4.80;99.20;;;;;;5086158;28;20181;-80
2021/01/06 07:48:44;;;;;;;32.65;27.30;;;4.80;99.40;;;;;;5095121;28;20215;-79
2021/01/06 07:51:33;;;;;;;32.80;26.92;;;4.80;99.40;;;;;;5092381;28;20188;-79
2021/01/06 07:54:10;;;;;;;30.83;24.55;;;4.80;99.50;;;;;;5099547;28;20332;-80
2021/01/06 07:56:51;;;;;;;29.83;22.85;;;4.80;99.90;;;;;;5089075;28;20433;-79
2021/01/06 07:59:25;;;;;;;32.60;23.73;;;4.80;99.90;;;;;;5103753;28;20248;-79
2021/01/06 08:02:05;;;;;;;30.48;25.00;;;4.90;99.90;;;;;;5103674;28;20531;-79
2021/01/06 08:04:54;;;;;;;41.78;30.42;;;4.90;99.90;;;;;;5100235;28;20188;-80
2021/01/06 08:07:21;;;;;;;36.42;27.77;;;4.80;99.90;;;;;;5093224;28;20176;-79
2021/01/06 08:09:49;;;;;;;39.10;31.70;;;4.90;99.90;;;;;;5106801;28;20203;-80
2021/01/06 08:12:25;;;;;;;34.70;27.42;;;5.00;99.90;;;;;;5096884;28;20582;-80
2021/01/06 08:15:11;;;;;;;33.40;29.88;;;5.10;99.90;;;;;;5104348;28;20179;-80
2021/01/06 08:17:57;;;;;;;38.92;30.73;;;5.10;99.90;;;;;;5079653;28;20202;-80
2021/01/06 08:21:03;;;;;;;34.65;30.30;;;5.20;99.90;;;;;;5099410;28;20207;-80
2021/01/06 08:23:58;;;;;;;36.47;29.65;;;5.10;99.90;;;;;;5101284;28;20214;-79
2021/01/06 08:26:29;;;;;;;41.53;32.80;;;5.20;99.90;;;;;;5104710;28;20266;-79
2021/01/06 08:29:19;;;;;;;40.00;29.35;;;5.30;99.90;;;;;;5107108;28;20581;-80
2021/01/06 08:31:48;;;;;;;36.17;28.40;;;5.30;99.90;;;;;;5107630;28;20180;-79
2021/01/06 08:34:22;;;;;;;34.85;26.45;;;5.40;99.90;;;;;;5095232;28;20675;-79
2021/01/06 08:37:13;;;;;;;33.72;28.00;;;5.60;99.90;;;;;;5104991;28;20186;-79
2021/01/06 08:39:56;;;;;;;30.75;24.73;;;5.80;99.90;;;;;;5102521;28;20199;-80
2021/01/06 08:42:27;;;;;;;33.03;27.38;;;6.30;99.90;;;;;;5106217;28;20704;-80
2021/01/06 08:45:01;;;;;;;34.97;28.00;;;6.50;99.20;;;;;;5103989;28;20250;-80
2021/01/06 08:47:38;;;;;;;33.95;28.38;;;6.40;99.90;;;;;;5111560;28;20190;-80
2021/01/06 08:50:16;;;;;;;34.13;27.85;;;6.60;99.10;;;;;;5100403;28;20688;-80
2021/01/06 08:52:48;;;;;;;53.72;42.95;;;6.50;99.50;;;;;;5109564;28;20214;-80
2021/01/06 08:55:25;;;;;;;53.05;46.90;;;6.40;99.90;;;;;;5105752;28;20220;-80
2021/01/06 08:58:03;;;;;;;48.25;41.80;;;6.40;99.90;;;;;;5100907;28;20249;-80
2021/01/06 09:00:42;;;;;;;41.30;33.70;;;6.40;99.90;;;;;;5106410;28;20179;-80
2021/01/06 09:03:07;;;;;;;40.63;33.53;;;6.50;99.90;;;;;;5100429;28;20267;-80
2021/01/06 09:05:48;;;;;;;40.13;31.57;;;6.50;99.80;;;;;;5098922;28;20245;-80
2021/01/06 09:08:14;;;;;;;45.53;35.38;;;6.60;99.40;;;;;;5095779;28;20219;-80
2021/01/06 09:10:59;;;;;;;41.63;32.57;;;6.60;99.90;;;;;;5100547;28;20235;-80
2021/01/06 09:13:35;;;;;;;40.47;32.75;;;6.60;99.80;;;;;;5095869;28;20188;-80
2021/01/06 09:16:16;;;;;;;40.70;33.25;;;6.70;99.90;;;;;;5101560;28;20262;-80
2021/01/06 09:18:51;;;;;;;37.78;31.85;;;6.80;99.60;;;;;;5092951;28;20884;-80
2021/01/06 09:21:25;;;;;;;38.03;31.17;;;6.90;99.90;;;;;;5107232;28;20266;-80
2021/01/06 09:23:54;;;;;;;45.88;36.45;;;6.90;99.80;;;;;;5093934;28;20644;-80
2021/01/06 09:26:24;;;;;;;37.25;31.85;;;6.80;99.90;;;;;;5108781;28;20183;-80
2021/01/06 09:28:58;;;;;;;39.47;32.97;;;6.90;99.50;;;;;;5103773;28;20192;-80
2021/01/06 09:31:24;;;;;;;37.70;32.90;;;6.90;99.50;;;;;;5103496;28;20591;-80
2021/01/06 09:33:51;;;;;;;44.20;36.50;;;6.90;99.60;;;;;;5102467;28;20196;-80
2021/01/06 09:36:17;;;;;;;42.65;33.92;;;6.90;99.70;;;;;;5108250;28;20683;-80
2021/01/06 09:38:46;;;;;;;41.87;32.30;;;6.90;99.90;;;;;;5101790;28;20180;-80
2021/01/06 09:41:21;;;;;;;42.65;33.80;;;6.90;99.90;;;;;;5110760;28;20199;-79
2021/01/06 09:44:00;;;;;;;38.38;32.92;;;7.00;99.90;;;;;;5099859;28;20267;-80
2021/01/06 09:46:49;;;;;;;38.78;32.10;;;6.90;99.90;;;;;;5108988;28;20237;-80
2021/01/06 09:49:19;;;;;;;44.45;33.80;;;7.00;99.90;;;;;;5102503;28;20212;-79
2021/01/06 09:51:48;;;;;;;42.60;35.25;;;7.10;99.80;;;;;;5103066;28;20655;-80
2021/01/06 09:54:15;;;;;;;44.40;37.42;;;7.20;99.60;;;;;;5106676;28;20191;-81
2021/01/06 09:56:41;;;;;;;41.63;33.05;;;7.20;99.10;;;;;;5113265;28;20234;-80
2021/01/06 09:59:18;;;;;;;39.53;33.77;;;7.20;99.60;;;;;;5105137;27;20532;-80
2021/01/06 10:02:16;;;;;;;41.63;32.67;;;7.10;99.60;;;;;;5107066;28;20417;-80
2021/01/06 10:04:44;;;;;;;42.55;31.38;;;7.10;99.80;;;;;;5109390;28;20180;-80
2021/01/06 10:07:25;;;;;;;40.25;32.22;;;7.20;99.80;;;;;;5107663;28;20190;-80
2021/01/06 10:09:59;;;;;;;40.53;31.40;;;7.20;99.50;;;;;;5096964;28;20208;-79
2021/01/06 10:12:30;;;;;;;39.75;31.50;;;7.20;99.90;;;;;;5093926;28;20184;-80
2021/01/06 10:15:32;;;;;;;36.80;29.40;;;7.30;99.30;;;;;;5099653;28;20177;-80
2021/01/06 10:18:28;;;;;;;38.70;31.27;;;7.30;99.30;;;;;;5104865;28;20188;-80
2021/01/06 10:21:07;;;;;;;35.67;29.17;;;7.40;99.30;;;;;;5109471;28;20215;-80
2021/01/06 10:23:49;;;;;;;36.33;28.45;;;7.50;98.80;;;;;;5103719;27;20189;-80
2021/01/06 10:26:26;;;;;;;37.13;28.25;;;7.60;99.00;;;;;;5104343;28;20648;-79
2021/01/06 10:28:51;;;;;;;36.33;28.17;;;7.50;98.80;;;;;;5101015;28;20636;-80
2021/01/06 10:31:21;;;;;;;38.17;28.97;;;7.50;98.80;;;;;;5102183;27;20184;-80
2021/01/06 10:34:06;;;;;;;41.65;29.42;;;7.60;99.10;;;;;;5101102;28;20443;-80
2021/01/06 10:36:51;;;;;;;35.83;31.10;;;7.60;98.80;;;;;;5111780;28;20551;-79
2021/01/06 10:39:33;;;;;;;34.90;28.00;;;7.60;98.80;;;;;;5097195;28;20191;-80
2021/01/06 10:42:01;;;;;;;37.08;28.05;;;7.40;99.40;;;;;;5095634;28;20904;-78
2021/01/06 10:44:31;;;;;;;37.90;31.67;;;7.30;99.80;;;;;;5106013;28;20194;-77
2021/01/06 10:47:27;;;;;;;33.75;26.85;;;7.50;99.80;;;;;;5107649;28;20229;-77
2021/01/06 10:49:57;;;;;;;38.67;31.90;;;7.60;99.90;;;;;;5093355;28;20576;-77
2021/01/06 10:52:26;;;;;;;33.80;26.65;;;7.80;99.70;;;;;;5108559;28;20180;-78
2021/01/06 10:55:01;;;;;;;41.60;28.20;;;7.80;99.30;;;;;;5099619;28;20266;-78
2021/01/06 10:57:41;;;;;;;35.17;26.35;;;8.00;99.30;;;;;;5091903;28;20172;-78
2021/01/06 11:00:26;;;;;;;41.05;31.63;;;7.90;99.10;;;;;;5096026;28;20551;-78
2021/01/06 11:03:16;;;;;;;28.65;21.70;;;7.90;98.90;;;;;;5104602;28;20184;-78
2021/01/06 11:05:58;;;;;;;32.90;26.40;;;7.90;98.80;;;;;;5100452;28;20176;-78
2021/01/06 11:08:51;;;;;;;30.02;22.25;;;8.00;98.30;;;;;;5099322;28;20719;-78
2021/01/06 11:11:27;;;;;;;36.28;28.55;;;8.00;98.60;;;;;;5096556;28;20180;-78
2021/01/06 11:13:56;;;;;;;25.02;20.65;;;8.00;97.50;;;;;;5092823;28;20536;-78
2021/01/06 11:16:28;;;;;;;19.60;16.45;;;7.90;97.90;;;;;;5106114;28;20192;-78
2021/01/06 11:18:56;;;;;;;30.48;23.15;;;7.90;98.00;;;;;;5094206;28;20797;-78
2021/01/06 11:21:40;;;;;;;22.25;16.77;;;7.90;98.10;;;;;;5103697;28;20271;-78
2021/01/06 11:24:48;;;;;;;20.88;17.17;;;7.90;98.10;;;;;;5095822;28;20224;-78
2021/01/06 11:27:49;;;;;;;17.98;15.55;;;7.90;98.10;;;;;;5108311;28;20187;-78
2021/01/06 11:30:22;;;;;;;26.52;22.38;;;8.00;97.90;;;;;;5076265;28;20548;-78
2021/01/06 11:33:08;;;;;;;22.23;18.42;;;8.10;97.70;;;;;;5090402;28;20184;-78
2021/01/06 11:36:01;;;;;;;25.10;20.88;;;8.30;97.50;;;;;;5104039;28;20183;-78
2021/01/06 11:38:42;;;;;;;20.67;17.02;;;8.60;97.30;;;;;;5104076;28;20184;-78
2021/01/06 11:41:25;;;;;;;20.00;14.30;;;8.40;96.20;;;;;;5103199;28;20183;-77
2021/01/06 11:44:20;;;;;;;18.23;12.38;;;8.30;95.90;;;;;;5094517;28;20245;-78
2021/01/06 11:46:52;;;;;;;13.25;11.85;;;8.20;96.60;;;;;;5103391;28;20198;-78
2021/01/06 11:49:49;;;;;;;12.32;11.02;;;8.30;96.30;;;;;;5091725;28;20216;-78
2021/01/06 11:52:35;;;;;;;12.88;10.85;;;8.30;96.20;;;;;;5098371;28;20196;-78
2021/01/06 11:55:13;;;;;;;11.95;10.65;;;8.50;95.50;;;;;;5100257;28;20226;-79
2021/01/06 11:58:01;;;;;;;12.95;11.65;;;8.50;95.50;;;;;;5094864;28;20641;-79
2021/01/06 12:00:42;;;;;;;13.30;11.48;;;8.40;95.70;;;;;;5098273;28;20208;-78
2021/01/06 12:03:08;;;;;;;11.40;10.20;;;8.50;95.80;;;;;;5094155;28;20222;-79
2021/01/06 12:06:04;;;;;;;13.10;9.50;;;8.50;95.50;;;;;;5091785;28;20373;-78
2021/01/06 12:09:05;;;;;;;11.98;9.68;;;8.50;95.40;;;;;;5088075;28;20203;-78
2021/01/06 12:11:36;;;;;;;11.68;9.95;;;8.30;95.80;;;;;;5104466;28;20183;-79
2021/01/06 12:14:34;;;;;;;11.90;10.70;;;8.50;95.80;;;;;;5092612;28;20257;-78
2021/01/06 12:17:08;;;;;;;13.27;12.07;;;8.50;95.80;;;;;;5052276;28;20296;-79
2021/01/06 12:19:59;;;;;;;8.02;7.00;;;8.50;95.70;;;;;;5091672;28;20232;-79
2021/01/06 12:22:25;;;;;;;10.07;9.07;;;8.30;95.60;;;;;;5089186;28;20185;-79
2021/01/06 12:24:52;;;;;;;10.05;7.53;;;8.40;95.60;;;;;;5097479;28;20260;-78
2021/01/06 12:27:18;;;;;;;8.02;6.70;;;8.50;95.30;;;;;;5090465;28;20196;-78
2021/01/06 12:29:52;;;;;;;8.50;7.47;;;8.40;95.70;;;;;;5097783;28;20215;-79
2021/01/06 12:32:24;;;;;;;9.98;8.60;;;8.40;95.90;;;;;;5092685;28;20419;-78
2021/01/06 12:34:53;;;;;;;10.10;8.70;;;8.50;96.00;;;;;;5104250;28;20180;-78
2021/01/06 12:37:31;;;;;;;8.52;7.70;;;8.50;95.60;;;;;;5103343;28;20173;-77
2021/01/06 12:40:06;;;;;;;9.73;8.85;;;8.50;95.40;;;;;;5100875;28;20912;-77
2021/01/06 12:42:49;;;;;;;8.85;7.95;;;8.50;95.70;;;;;;5104502;28;20237;-77
2021/01/06 12:45:22;;;;;;;8.45;7.60;;;8.50;96.00;;;;;;5091664;28;20826;-77
2021/01/06 12:47:54;;;;;;;11.68;10.20;;;8.70;95.50;;;;;;5089732;28;20535;-77
2021/01/06 12:50:22;;;;;;;12.05;10.75;;;8.70;95.30;;;;;;5090913;28;20279;-77
2021/01/06 12:52:56;;;;;;;8.23;7.43;;;8.60;95.50;;;;;;5090895;28;20242;-77
2021/01/06 12:55:34;;;;;;;8.23;6.38;;;8.60;95.50;;;;;;5099509;28;20219;-79
2021/01/06 12:58:16;;;;;;;10.02;8.23;;;8.50;95.50;;;;;;5103437;28;20271;-78
2021/01/06 13:00:44;;;;;;;16.88;13.88;;;8.70;95.30;;;;;;5090893;28;21029;-78
2021/01/06 13:03:27;;;;;;;10.02;8.25;;;8.70;94.70;;;;;;5092138;28;20241;-78
2021/01/06 13:05:58;;;;;;;12.82;10.05;;;8.60;94.80;;;;;;5091175;28;20188;-78
2021/01/06 13:08:31;;;;;;;11.43;9.85;;;8.50;95.20;;;;;;5095237;28;20202;-78
2021/01/06 13:11:12;;;;;;;13.30;11.00;;;8.40;95.20;;;;;;5101313;28;20211;-78
2021/01/06 13:13:40;;;;;;;15.05;10.32;;;8.40;95.40;;;;;;5101728;28;20211;-78
2021/01/06 13:16:28;;;;;;;7.35;6.65;;;8.50;95.70;;;;;;5096471;28;20180;-78
2021/01/06 13:18:56;;;;;;;11.98;10.40;;;8.60;95.40;;;;;;5093935;28;21185;-78
2021/01/06 13:21:38;;;;;;;8.25;7.45;;;8.50;95.50;;;;;;5110472;28;20192;-79